Time;durP1;ratioP1;P1;durP2;ratioP2;P2;SDS_P1;SDS_P2;PMS_P1;PMS_P2;Temp;Humidity;BMP_temperature;BMP_pressure;BME280_temperature;BME280_humidity;BME280_pressure;Samples;Min_cycle;Max_cycle;Signal;HPM_P1;HPM_P2
2022/04/20 00:01:09;;;;;;;;;;;;;;;29.76;21.51;100636.81;5076082;28;1184;-43
2022/04/20 00:03:34;;;;;;;;;;;;;;;29.23;22.20;100642.81;5076705;28;742;-43
2022/04/20 00:06:00;;;;;;;;;;;;;;;29.55;22.08;100644.00;5075678;28;877;-42
2022/04/20 00:08:25;;;;;;;;;;;;;;;30.09;21.19;100639.81;5076635;28;806;-43
2022/04/20 00:10:50;;;;;;;;;;;;;;;30.24;21.25;100651.34;5076528;28;1914;-43
2022/04/20 00:13:15;;;;;;;;;;;;;;;30.38;21.05;100643.22;5077129;28;769;-42
2022/04/20 00:15:41;;;;;;;;;;;;;;;30.17;21.08;100648.59;5075718;28;948;-42
2022/04/20 00:18:06;;;;;;;;;;;;;;;29.94;21.56;100648.97;5076771;28;944;-42
2022/04/20 00:20:31;;;;;;;;;;;;;;;29.74;21.64;100638.91;5075731;28;879;-43
2022/04/20 00:22:57;;;;;;;;;;;;;;;29.27;22.17;100652.22;5076094;28;941;-43
2022/04/20 00:25:22;;;;;;;;;;;;;;;29.62;21.90;100657.63;5076149;28;849;-43
2022/04/20 00:27:47;;;;;;;;;;;;;;;30.17;21.28;100654.03;5076118;28;1155;-42
2022/04/20 00:30:13;;;;;;;;;;;;;;;30.40;21.08;100657.41;5075696;28;1956;-42
2022/04/20 00:32:39;;;;;;;;;;;;;;;30.53;20.92;100665.56;5076029;28;837;-42
2022/04/20 00:35:05;;;;;;;;;;;;;;;30.21;21.05;100661.78;5075541;28;783;-43
2022/04/20 00:37:30;;;;;;;;;;;;;;;30.00;21.25;100659.00;5076147;28;1146;-42
2022/04/20 00:39:56;;;;;;;;;;;;;;;29.49;21.82;100655.66;5076275;28;726;-42
2022/04/20 00:42:22;;;;;;;;;;;;;;;29.19;22.34;100645.09;5075743;28;729;-42
2022/04/20 00:44:47;;;;;;;;;;;;;;;29.72;21.92;100649.09;5075340;28;818;-42
2022/04/20 00:47:12;;;;;;;;;;;;;;;29.97;21.54;100653.13;5057655;28;1054;-43
2022/04/20 00:49:38;;;;;;;;;;;;;;;30.17;21.31;100656.72;5056856;28;1965;-42
2022/04/20 00:52:03;;;;;;;;;;;;;;;30.44;20.98;100647.81;5076125;28;758;-42
2022/04/20 00:54:29;;;;;;;;;;;;;;;29.92;21.51;100654.59;5076380;28;909;-42
2022/04/20 00:56:54;;;;;;;;;;;;;;;29.84;21.68;100651.22;5075378;28;837;-42
2022/04/20 00:59:20;;;;;;;;;;;;;;;29.78;21.54;100644.75;5075586;28;1100;-42
2022/04/20 01:01:45;;;;;;;;;;;;;;;29.26;22.13;100645.94;5075320;28;1129;-43
2022/04/20 01:04:11;;;;;;;;;;;;;;;29.58;22.07;100649.03;5075838;28;837;-43
2022/04/20 01:06:36;;;;;;;;;;;;;;;30.31;21.24;100652.19;5069226;28;794;-42
2022/04/20 01:09:02;;;;;;;;;;;;;;;30.48;20.97;100657.19;5075993;28;1910;-43
2022/04/20 01:11:27;;;;;;;;;;;;;;;30.59;20.68;100657.63;5075660;28;829;-42
2022/04/20 01:13:52;;;;;;;;;;;;;;;30.15;21.44;100660.69;5075608;28;916;-42
2022/04/20 01:16:18;;;;;;;;;;;;;;;29.96;21.63;100659.59;5075604;28;852;-42
2022/04/20 01:18:43;;;;;;;;;;;;;;;29.42;21.87;100655.63;5075997;28;1016;-43
2022/04/20 01:21:10;;;;;;;;;;;;;;;29.17;22.22;100655.28;5075417;28;837;-42
2022/04/20 01:23:36;;;;;;;;;;;;;;;29.82;21.83;100646.00;5075323;28;892;-42
2022/04/20 01:26:04;;;;;;;;;;;;;;;29.82;21.62;100649.56;5075150;28;1020;-42
2022/04/20 01:28:29;;;;;;;;;;;;;;;30.07;21.35;100642.72;5075484;28;746;-42
2022/04/20 01:30:55;;;;;;;;;;;;;;;30.21;21.46;100648.22;5056548;28;1890;-42
2022/04/20 01:33:20;;;;;;;;;;;;;;;29.75;21.89;100642.44;5075456;28;853;-42
2022/04/20 01:35:47;;;;;;;;;;;;;;;29.76;21.96;100636.81;5074771;28;818;-42
2022/04/20 01:38:12;;;;;;;;;;;;;;;29.92;21.70;100646.47;5075403;28;849;-42
2022/04/20 01:40:38;;;;;;;;;;;;;;;29.91;21.40;100635.81;5075574;28;770;-43
2022/04/20 01:43:03;;;;;;;;;;;;;;;29.36;22.15;100648.31;5075467;28;795;-43
2022/04/20 01:45:28;;;;;;;;;;;;;;;29.43;22.24;100646.47;5074240;28;887;-42
2022/04/20 01:47:54;;;;;;;;;;;;;;;30.36;21.23;100643.44;5078257;28;932;-43
2022/04/20 01:50:19;;;;;;;;;;;;;;;30.50;20.87;100641.53;5079034;28;1956;-43
2022/04/20 01:52:47;;;;;;;;;;;;;;;30.59;20.72;100646.75;5079119;28;889;-42
2022/04/20 01:55:12;;;;;;;;;;;;;;;30.15;21.23;100647.13;5079181;28;838;-42
2022/04/20 01:57:37;;;;;;;;;;;;;;;29.92;21.53;100642.91;5078976;28;877;-42
2022/04/20 02:00:03;;;;;;;;;;;;;;;29.41;21.83;100645.81;5078577;28;1081;-42
2022/04/20 02:02:40;;;;;;;;;;;;;;;29.19;22.16;100647.81;5079277;28;825;-42
2022/04/20 02:05:06;;;;;;;;;;;;;;;30.35;21.19;100649.03;5078901;28;865;-42
2022/04/20 02:07:32;;;;;;;;;;;;;;;29.69;21.64;100646.81;5078791;28;865;-43
2022/04/20 02:09:57;;;;;;;;;;;;;;;29.20;22.34;100644.91;5079301;28;1963;-42
2022/04/20 02:12:23;;;;;;;;;;;;;;;29.00;22.43;100639.34;5078714;28;817;-42
2022/04/20 02:14:48;;;;;;;;;;;;;;;28.87;22.47;100641.94;5078846;28;829;-42
2022/04/20 02:17:13;;;;;;;;;;;;;;;28.84;22.76;100644.00;5077922;28;854;-42
2022/04/20 02:19:39;;;;;;;;;;;;;;;28.71;22.67;100642.03;5078362;28;919;-42
2022/04/20 02:22:05;;;;;;;;;;;;;;;28.64;23.12;100643.03;5078694;28;858;-43
2022/04/20 02:24:30;;;;;;;;;;;;;;;28.54;23.08;100649.63;5078767;28;810;-42
2022/04/20 02:26:55;;;;;;;;;;;;;;;28.53;23.18;100650.63;5078167;28;1020;-43
2022/04/20 02:29:20;;;;;;;;;;;;;;;28.43;23.37;100645.56;5078769;28;1953;-42
2022/04/20 02:31:46;;;;;;;;;;;;;;;28.62;23.44;100645.94;5078143;28;862;-42
2022/04/20 02:34:11;;;;;;;;;;;;;;;28.54;23.29;100640.66;5078102;28;809;-42
2022/04/20 02:36:36;;;;;;;;;;;;;;;28.62;23.36;100648.63;5078238;28;1488;-42
2022/04/20 02:39:04;;;;;;;;;;;;;;;28.96;23.10;100649.72;5077893;28;847;-42
2022/04/20 02:41:30;;;;;;;;;;;;;;;28.62;23.15;100640.53;5078417;28;785;-42
2022/04/20 02:43:55;;;;;;;;;;;;;;;28.66;23.39;100628.25;5078250;28;829;-43
2022/04/20 02:46:22;;;;;;;;;;;;;;;28.93;22.81;100630.31;5077518;28;865;-42
2022/04/20 02:48:48;;;;;;;;;;;;;;;29.20;22.64;100631.34;5078378;28;980;-43
2022/04/20 02:51:14;;;;;;;;;;;;;;;29.49;22.20;100636.69;5059244;28;1894;-43
2022/04/20 02:53:39;;;;;;;;;;;;;;;29.78;21.68;100642.88;5078005;28;781;-43
2022/04/20 02:56:04;;;;;;;;;;;;;;;29.90;21.78;100643.09;5078050;28;817;-42
2022/04/20 02:58:29;;;;;;;;;;;;;;;30.05;21.48;100642.09;5077797;28;878;-42
2022/04/20 03:00:55;;;;;;;;;;;;;;;29.86;21.57;100639.16;5077458;28;1179;-42
2022/04/20 03:03:20;;;;;;;;;;;;;;;29.36;22.18;100644.75;5077981;28;853;-43
2022/04/20 03:05:45;;;;;;;;;;;;;;;29.46;22.41;100643.34;5077607;28;888;-42
2022/04/20 03:08:11;;;;;;;;;;;;;;;29.64;22.07;100652.00;5077476;28;761;-42
2022/04/20 03:10:37;;;;;;;;;;;;;;;29.43;22.32;100648.31;5077455;28;2020;-42
2022/04/20 03:13:02;;;;;;;;;;;;;;;29.27;22.60;100649.50;5077297;28;858;-42
2022/04/20 03:15:28;;;;;;;;;;;;;;;29.27;22.65;100655.75;5077314;28;871;-42
2022/04/20 03:17:53;;;;;;;;;;;;;;;29.30;22.49;100654.50;5076350;28;1163;-42
2022/04/20 03:20:18;;;;;;;;;;;;;;;29.18;22.08;100659.66;5077382;28;778;-43
2022/04/20 03:22:44;;;;;;;;;;;;;;;29.01;22.28;100661.88;5077490;28;782;-42
2022/04/20 03:25:09;;;;;;;;;;;;;;;29.90;21.79;100666.66;5077551;28;758;-42
2022/04/20 03:27:34;;;;;;;;;;;;;;;30.16;21.44;100670.50;5076879;28;1044;-42
2022/04/20 03:30:00;;;;;;;;;;;;;;;30.17;21.56;100666.75;5076670;28;1901;-43
2022/04/20 03:32:25;;;;;;;;;;;;;;;29.99;21.58;100661.91;5076358;28;1195;-42
2022/04/20 03:34:50;;;;;;;;;;;;;;;29.32;22.03;100668.72;5077497;28;813;-42
2022/04/20 03:37:16;;;;;;;;;;;;;;;29.08;22.44;100671.69;5077304;28;803;-41
2022/04/20 03:39:41;;;;;;;;;;;;;;;29.44;22.49;100669.81;5077011;28;1488;-42
2022/04/20 03:42:07;;;;;;;;;;;;;;;29.23;21.37;100670.72;5076922;28;862;-41
2022/04/20 03:44:33;;;;;;;;;;;;;;;28.75;19.84;100676.81;5076909;28;840;-43
2022/04/20 03:46:59;;;;;;;;;;;;;;;28.26;19.22;100676.59;5074684;28;1183;-41
2022/04/20 03:49:24;;;;;;;;;;;;;;;27.85;19.57;100676.16;5076691;28;1893;-41
2022/04/20 03:51:49;;;;;;;;;;;;;;;27.28;19.72;100673.13;5077141;28;864;-40
2022/04/20 03:54:15;;;;;;;;;;;;;;;27.19;19.80;100672.34;5076862;28;1531;-42
2022/04/20 03:59:24;;;;;;;;;;;;;;;26.46;18.96;100681.75;5074848;28;1135;-41
2022/04/20 04:01:51;;;;;;;;;;;;;;;26.58;18.93;100685.69;5076408;28;810;-39
2022/04/20 04:04:16;;;;;;;;;;;;;;;26.87;17.58;100684.13;5076438;28;853;-40
2022/04/20 04:06:42;;;;;;;;;;;;;;;26.85;17.30;100685.31;5077134;28;775;-40
2022/04/20 04:09:07;;;;;;;;;;;;;;;26.73;17.33;100685.75;5068849;28;822;-40
2022/04/20 04:11:33;;;;;;;;;;;;;;;27.01;17.43;100673.50;5076309;28;1966;-40
2022/04/20 04:13:58;;;;;;;;;;;;;;;27.01;17.80;100681.59;5076328;28;814;-40
2022/04/20 04:16:24;;;;;;;;;;;;;;;25.57;18.31;100673.78;5076235;28;895;-39
2022/04/20 04:18:49;;;;;;;;;;;;;;;24.65;19.84;100687.38;5076456;28;817;-40
2022/04/20 04:21:14;;;;;;;;;;;;;;;24.39;19.98;100684.81;5076282;28;853;-40
2022/04/20 04:23:39;;;;;;;;;;;;;;;24.06;20.28;100689.09;5076332;28;833;-42
2022/04/20 04:26:05;;;;;;;;;;;;;;;24.04;20.30;100684.91;5076240;28;997;-40
2022/04/20 04:28:30;;;;;;;;;;;;;;;23.81;20.55;100686.31;5076459;28;1039;-39
2022/04/20 04:30:55;;;;;;;;;;;;;;;23.78;20.58;100692.03;5075376;28;1894;-40
2022/04/20 04:33:20;;;;;;;;;;;;;;;23.56;20.95;100696.09;5076176;28;930;-41
2022/04/20 04:35:46;;;;;;;;;;;;;;;23.43;21.13;100701.91;5076007;28;948;-41
2022/04/20 04:38:12;;;;;;;;;;;;;;;23.26;21.10;100700.94;5076375;28;850;-39
2022/04/20 04:40:38;;;;;;;;;;;;;;;23.24;21.16;100709.16;5076042;28;813;-40
2022/04/20 04:43:03;;;;;;;;;;;;;;;23.06;21.24;100710.03;5076391;28;962;-43
2022/04/20 04:48:55;;;;;;;;;;;;;;;23.47;21.81;100711.34;5076087;28;754;-41
2022/04/20 04:51:01;;;;;;;;;;;;;;;23.68;21.49;100713.63;5067710;28;1898;-42
2022/04/20 04:53:27;;;;;;;;;;;;;;;23.85;21.35;100719.94;5076364;28;778;-41
2022/04/20 04:55:52;;;;;;;;;;;;;;;23.89;21.36;100716.91;5076014;28;916;-41
2022/04/20 04:58:17;;;;;;;;;;;;;;;23.90;21.32;100727.50;5076462;28;809;-41
2022/04/20 05:00:43;;;;;;;;;;;;;;;23.94;21.40;100719.97;5080400;28;1008;-41
2022/04/20 05:03:08;;;;;;;;;;;;;;;23.97;21.44;100725.84;5061326;28;816;-40
2022/04/20 05:05:34;;;;;;;;;;;;;;;23.93;21.42;100723.63;5056536;28;887;-41
2022/04/20 05:07:59;;;;;;;;;;;;;;;23.98;21.59;100718.63;5056355;28;827;-41
2022/04/20 05:10:24;;;;;;;;;;;;;;;23.95;21.61;100722.50;5056337;28;1965;-41
2022/04/20 05:12:50;;;;;;;;;;;;;;;23.95;21.63;100732.38;5065368;28;825;-39
2022/04/20 05:15:15;;;;;;;;;;;;;;;24.00;21.75;100731.91;5059929;28;806;-40
2022/04/20 05:17:40;;;;;;;;;;;;;;;24.00;21.65;100738.13;5063092;28;916;-41
2022/04/20 05:20:06;;;;;;;;;;;;;;;24.08;21.76;100735.47;5056300;28;825;-41
2022/04/20 05:22:32;;;;;;;;;;;;;;;24.14;21.52;100735.81;5059167;28;834;-39
2022/04/20 05:24:57;;;;;;;;;;;;;;;24.05;21.58;100735.78;5064649;28;913;-40
2022/04/20 05:27:22;;;;;;;;;;;;;;;24.04;21.94;100733.28;5071316;28;989;-41
2022/04/20 05:29:48;;;;;;;;;;;;;;;24.07;22.06;100736.44;5060118;28;1965;-41
2022/04/20 05:32:13;;;;;;;;;;;;;;;24.14;22.05;100742.00;5072875;28;1405;-41
2022/04/20 05:34:39;;;;;;;;;;;;;;;24.18;21.98;100747.94;5079163;28;955;-43
2022/04/20 05:42:32;;;;;;;;;;;;;;;24.29;22.11;100750.31;5074556;28;608;-43
2022/04/20 05:44:57;;;;;;;;;;;;;;;24.34;22.06;100742.59;5079265;28;881;-41
2022/04/20 05:47:23;;;;;;;;;;;;;;;24.37;22.10;100743.28;5071729;28;1379;-40
2022/04/20 05:49:48;;;;;;;;;;;;;;;24.44;21.89;100745.16;5059192;28;1956;-41
2022/04/20 05:52:13;;;;;;;;;;;;;;;24.52;21.89;100747.03;5071019;28;845;-41
2022/04/20 05:54:38;;;;;;;;;;;;;;;24.25;22.28;100740.06;5059415;28;873;-40
2022/04/20 05:57:04;;;;;;;;;;;;;;;24.40;22.12;100743.81;5079069;28;786;-40
2022/04/20 05:59:29;;;;;;;;;;;;;;;24.30;22.11;100746.66;5046803;28;1255;-42
2022/04/20 06:01:55;;;;;;;;;;;;;;;24.37;22.40;100746.84;5091681;28;1396;-42
2022/04/20 06:04:20;;;;;;;;;;;;;;;24.30;22.76;100737.72;5092241;28;805;-41
2022/04/20 06:06:45;;;;;;;;;;;;;;;24.32;22.76;100739.22;5094082;28;770;-41
2022/04/20 06:09:11;;;;;;;;;;;;;;;24.32;22.73;100735.72;5097228;28;806;-43
2022/04/20 06:11:36;;;;;;;;;;;;;;;24.86;22.34;100737.13;5098702;28;1968;-41
2022/04/20 06:14:02;;;;;;;;;;;;;;;25.68;21.31;100729.16;5099020;28;864;-42
2022/04/20 06:16:27;;;;;;;;;;;;;;;26.16;20.83;100737.19;5098059;28;916;-41
2022/04/20 06:18:52;;;;;;;;;;;;;;;26.23;20.64;100729.22;5081885;28;1500;-43
2022/04/20 06:21:18;;;;;;;;;;;;;;;25.43;21.29;100726.50;5087185;28;921;-42
2022/04/20 06:23:43;;;;;;;;;;;;;;;25.12;21.90;100722.69;5079799;28;745;-43
2022/04/20 06:26:09;;;;;;;;;;;;;;;24.87;22.15;100721.84;5084152;28;985;-42
2022/04/20 06:28:34;;;;;;;;;;;;;;;24.99;21.82;100727.75;5085768;28;869;-44
2022/04/20 06:30:59;;;;;;;;;;;;;;;25.02;21.87;100730.94;5096450;28;1898;-40
2022/04/20 06:33:25;;;;;;;;;;;;;;;24.74;22.19;100719.66;5082350;28;1504;-41
2022/04/20 06:35:51;;;;;;;;;;;;;;;24.80;23.00;100727.03;5088825;28;1292;-42
2022/04/20 06:38:16;;;;;;;;;;;;;;;24.91;22.60;100717.81;5087292;28;817;-41
2022/04/20 06:40:42;;;;;;;;;;;;;;;24.96;22.32;100722.72;5094792;28;1275;-41
2022/04/20 06:43:07;;;;;;;;;;;;;;;24.91;22.62;100715.13;5091012;28;845;-41
2022/04/20 06:45:32;;;;;;;;;;;;;;;24.80;22.79;100719.81;5084101;28;904;-40
2022/04/20 06:47:58;;;;;;;;;;;;;;;24.83;22.86;100711.41;5085465;28;985;-41
2022/04/20 06:50:23;;;;;;;;;;;;;;;24.88;23.09;100710.03;5098365;28;1905;-41
2022/04/20 06:58:31;;;;;;;;;;;;;;;24.85;23.34;100705.84;5078515;28;769;-41
2022/04/20 07:00:57;;;;;;;;;;;;;;;24.68;23.70;100708.53;5074256;28;1694;-40
2022/04/20 07:03:22;;;;;;;;;;;;;;;24.60;23.62;100707.69;5077887;28;727;-41
2022/04/20 07:05:47;;;;;;;;;;;;;;;24.70;23.32;100709.22;5077786;28;854;-41
2022/04/20 07:08:13;;;;;;;;;;;;;;;24.78;23.20;100710.22;5077605;28;802;-40
2022/04/20 07:10:38;;;;;;;;;;;;;;;24.78;23.07;100707.53;5077809;28;1914;-41
2022/04/20 07:13:03;;;;;;;;;;;;;;;24.75;23.32;100710.56;5077724;28;731;-40
2022/04/20 07:15:29;;;;;;;;;;;;;;;24.78;23.39;100712.91;5077063;28;940;-40
2022/04/20 07:17:54;;;;;;;;;;;;;;;24.87;23.67;100708.38;5078127;28;866;-41
2022/04/20 07:20:20;;;;;;;;;;;;;;;25.00;23.91;100705.19;5077402;28;742;-41
2022/04/20 07:22:48;;;;;;;;;;;;;;;25.02;23.67;100703.19;5077325;28;905;-41
2022/04/20 07:25:14;;;;;;;;;;;;;;;24.90;24.08;100698.16;5077979;28;840;-41
2022/04/20 07:27:40;;;;;;;;;;;;;;;24.94;23.88;100695.97;5077005;28;1456;-41
2022/04/20 07:30:05;;;;;;;;;;;;;;;25.01;23.98;100698.78;5077404;28;1961;-43
2022/04/20 07:32:31;;;;;;;;;;;;;;;25.12;23.72;100697.63;5076800;28;754;-42
2022/04/20 07:34:56;;;;;;;;;;;;;;;25.14;24.02;100695.59;5077249;28;854;-41
2022/04/20 07:37:21;;;;;;;;;;;;;;;25.16;23.76;100688.19;5077429;28;758;-39
2022/04/20 07:39:47;;;;;;;;;;;;;;;25.21;23.61;100683.13;5077192;28;789;-41
2022/04/20 07:42:13;;;;;;;;;;;;;;;25.30;23.14;100683.94;5076774;28;806;-41
2022/04/20 07:44:38;;;;;;;;;;;;;;;25.31;23.61;100675.69;5076137;28;881;-41
2022/04/20 07:47:03;;;;;;;;;;;;;;;25.34;23.48;100666.44;5076815;28;865;-44
2022/04/20 07:52:13;;;;;;;;;;;;;;;25.22;23.90;100657.06;5072290;28;647;-41
2022/04/20 07:54:38;;;;;;;;;;;;;;;25.24;23.97;100657.72;5077142;28;822;-41
2022/04/20 07:57:04;;;;;;;;;;;;;;;25.43;23.74;100656.47;5076512;28;837;-41
2022/04/20 07:59:29;;;;;;;;;;;;;;;25.49;23.71;100646.88;5076387;28;1035;-41
2022/04/20 08:01:54;;;;;;;;;;;;;;;25.48;23.98;100651.41;5076555;28;743;-41
2022/04/20 08:04:20;;;;;;;;;;;;;;;25.53;23.97;100649.03;5075864;28;1337;-41
2022/04/20 08:06:46;;;;;;;;;;;;;;;25.58;23.78;100634.19;5076709;28;901;-43
2022/04/20 08:09:11;;;;;;;;;;;;;;;25.55;23.76;100638.09;5070351;28;824;-40
2022/04/20 08:11:36;;;;;;;;;;;;;;;25.61;23.50;100637.38;5076102;28;1902;-40
2022/04/20 08:14:10;;;;;;;;;;;;;;;25.61;23.45;100639.25;5076383;28;852;-42
2022/04/20 08:16:36;;;;;;;;;;;;;;;25.60;23.77;100634.88;5070477;28;791;-42
2022/04/20 08:19:01;;;;;;;;;;;;;;;25.53;23.85;100632.88;5076263;28;865;-42
2022/04/20 08:21:27;;;;;;;;;;;;;;;25.51;24.00;100629.50;5076320;28;810;-43
2022/04/20 08:23:52;;;;;;;;;;;;;;;25.66;24.09;100626.09;5075721;28;805;-43
2022/04/20 08:26:18;;;;;;;;;;;;;;;25.69;23.83;100628.47;5076032;28;993;-42
2022/04/20 08:28:43;;;;;;;;;;;;;;;25.77;23.89;100623.03;5076842;28;829;-43
2022/04/20 08:31:08;;;;;;;;;;;;;;;25.66;23.96;100623.41;5076065;28;1910;-43
2022/04/20 08:33:34;;;;;;;;;;;;;;;25.76;23.63;100615.94;5075890;28;861;-44
2022/04/20 08:35:59;;;;;;;;;;;;;;;25.87;23.35;100612.03;5076283;28;850;-41
2022/04/20 08:38:25;;;;;;;;;;;;;;;25.82;23.51;100618.97;5076415;28;770;-43
2022/04/20 08:40:53;;;;;;;;;;;;;;;25.76;23.14;100610.56;5076456;28;841;-43
2022/04/20 08:43:18;;;;;;;;;;;;;;;25.74;23.17;100612.59;5076254;28;767;-42
2022/04/20 08:45:44;;;;;;;;;;;;;;;25.80;23.07;100606.50;5057821;28;910;-41
2022/04/20 08:48:09;;;;;;;;;;;;;;;25.65;23.26;100606.44;5058461;28;925;-43
2022/04/20 08:50:35;;;;;;;;;;;;;;;25.67;23.52;100608.94;5075853;28;1973;-43
2022/04/20 08:53:00;;;;;;;;;;;;;;;25.70;23.07;100611.28;5075935;28;785;-42
2022/04/20 08:55:26;;;;;;;;;;;;;;;25.80;22.98;100602.97;5057397;28;979;-43
2022/04/20 08:57:54;;;;;;;;;;;;;;;25.88;23.03;100608.31;5076524;28;798;-43
2022/04/20 09:00:24;;;;;;;;;;;;;;;25.92;23.03;100600.72;5087149;28;1032;-41
2022/04/20 09:02:52;;;;;;;;;;;;;;;25.88;23.23;100602.06;5088973;28;769;-43
2022/04/20 09:05:17;;;;;;;;;;;;;;;25.98;22.95;100596.44;5091708;28;813;-43
2022/04/20 09:07:42;;;;;;;;;;;;;;;25.94;22.89;100598.69;5095969;28;915;-43
2022/04/20 09:10:08;;;;;;;;;;;;;;;25.91;22.65;100604.41;5077449;28;1957;-43
2022/04/20 09:12:33;;;;;;;;;;;;;;;25.85;22.79;100597.88;5095814;28;790;-41
2022/04/20 09:15:00;;;;;;;;;;;;;;;25.77;22.60;100593.41;5077215;28;824;-43
2022/04/20 09:17:26;;;;;;;;;;;;;;;25.75;22.88;100598.13;5082103;28;820;-43
2022/04/20 09:19:52;;;;;;;;;;;;;;;25.70;22.78;100599.66;5076141;28;901;-43
2022/04/20 09:22:19;;;;;;;;;;;;;;;25.71;22.67;100606.75;5076252;28;840;-42
2022/04/20 09:25:11;;;;;;;;;;;;;;;25.83;22.59;100604.47;5076208;28;814;-41
2022/04/20 09:27:37;;;;;;;;;;;;;;;25.99;22.53;100606.22;5092514;28;949;-43
2022/04/20 09:30:04;;;;;;;;;;;;;;;25.84;22.43;100614.25;5083282;28;1902;-43
2022/04/20 09:32:33;;;;;;;;;;;;;;;25.83;22.94;100608.00;5094107;28;1873;-42
2022/04/20 09:34:58;;;;;;;;;;;;;;;25.94;22.99;100617.56;5077961;28;802;-43
2022/04/20 09:37:24;;;;;;;;;;;;;;;26.04;23.09;100612.75;5079394;28;790;-42
2022/04/20 09:39:52;;;;;;;;;;;;;;;26.00;23.05;100616.81;5080630;28;893;-42
2022/04/20 09:42:18;;;;;;;;;;;;;;;26.09;23.68;100608.69;5085902;28;883;-43
2022/04/20 09:44:55;;;;;;;;;;;;;;;26.01;23.75;100607.72;5078480;28;883;-43
2022/04/20 09:50:05;;;;;;;;;;;;;;;26.14;23.84;100609.00;5076188;28;1984;-42
2022/04/20 09:52:44;;;;;;;;;;;;;;;26.23;23.33;100607.06;5071732;28;1347;-41
2022/04/20 09:55:13;;;;;;;;;;;;;;;26.24;23.54;100611.44;5088949;28;1135;-41
2022/04/20 09:57:38;;;;;;;;;;;;;;;26.17;23.60;100601.34;5088080;28;1211;-42
2022/04/20 10:00:04;;;;;;;;;;;;;;;26.21;23.99;100599.16;5094612;28;1194;-42
2022/04/20 10:02:30;;;;;;;;;;;;;;;26.22;23.71;100613.47;5075687;28;798;-43
2022/04/20 10:04:55;;;;;;;;;;;;;;;26.22;23.48;100605.38;5075580;28;950;-43
2022/04/20 10:07:21;;;;;;;;;;;;;;;26.03;23.76;100600.28;5081059;28;1093;-42
2022/04/20 10:09:46;;;;;;;;;;;;;;;26.03;23.95;100604.84;5080449;28;1980;-42
2022/04/20 10:12:12;;;;;;;;;;;;;;;26.04;23.42;100599.25;5097297;28;1171;-42
2022/04/20 10:17:21;;;;;;;;;;;;;;;26.26;23.77;100590.50;5078975;28;969;-40
2022/04/20 10:19:47;;;;;;;;;;;;;;;26.33;24.29;100582.56;5079906;28;825;-43
2022/04/20 10:22:12;;;;;;;;;;;;;;;26.40;23.57;100588.91;5060955;28;982;-42
2022/04/20 10:24:38;;;;;;;;;;;;;;;26.43;23.92;100585.00;5060626;28;859;-41
2022/04/20 10:27:08;;;;;;;;;;;;;;;26.43;23.96;100585.00;5066554;28;981;-43
2022/04/20 10:30:03;;;;;;;;;;;;;;;26.41;24.26;100579.78;5074629;28;1894;-41
2022/04/20 10:32:30;;;;;;;;;;;;;;;26.37;24.24;100582.03;5071433;28;1390;-43
2022/04/20 10:34:58;;;;;;;;;;;;;;;26.40;23.94;100588.91;5078961;28;838;-40
2022/04/20 10:37:28;;;;;;;;;;;;;;;26.28;23.28;100578.53;5078896;28;886;-41
2022/04/20 10:39:54;;;;;;;;;;;;;;;26.34;23.57;100585.06;5079274;28;742;-42
2022/04/20 10:42:20;;;;;;;;;;;;;;;26.38;23.14;100580.16;5070193;28;1160;-41
2022/04/20 10:44:52;;;;;;;;;;;;;;;26.37;23.86;100573.09;5091158;28;793;-43
2022/04/20 10:47:27;;;;;;;;;;;;;;;26.36;23.98;100569.56;5062542;28;1420;-43
2022/04/20 10:49:53;;;;;;;;;;;;;;;26.39;23.75;100571.06;5078341;28;1902;-43
2022/04/20 10:52:24;;;;;;;;;;;;;;;26.37;23.99;100568.56;5078648;28;734;-40
2022/04/20 10:54:53;;;;;;;;;;;;;;;26.37;24.13;100573.94;5078641;28;805;-43
2022/04/20 10:57:18;;;;;;;;;;;;;;;26.39;24.04;100571.88;5087034;28;853;-41
2022/04/20 10:59:43;;;;;;;;;;;;;;;26.36;24.11;100566.03;5061019;28;1590;-43
2022/04/20 11:02:09;;;;;;;;;;;;;;;26.39;23.94;100558.41;5066578;28;1534;-42
2022/04/20 11:04:46;;;;;;;;;;;;;;;26.34;24.06;100562.69;5078515;28;645;-42
2022/04/20 11:07:18;;;;;;;;;;;;;;;26.34;23.92;100560.00;5078113;28;834;-42
2022/04/20 11:09:48;;;;;;;;;;;;;;;26.37;24.09;100552.38;5084092;28;1906;-43
2022/04/20 11:21:02;;;;;;;;;;;;;;;26.29;24.60;100538.94;5077932;28;643;-43
2022/04/20 11:23:46;;;;;;;;;;;;;;;26.40;24.47;100538.53;5079702;28;873;-42
2022/04/20 11:26:11;;;;;;;;;;;;;;;26.43;24.17;100537.31;5082990;28;1064;-42
2022/04/20 11:28:41;;;;;;;;;;;;;;;26.56;24.46;100539.34;5059485;28;917;-43
2022/04/20 11:31:06;;;;;;;;;;;;;;;26.43;24.31;100525.66;5087320;28;1902;-43
2022/04/20 11:33:32;;;;;;;;;;;;;;;26.43;24.59;100520.28;5077800;28;818;-42
2022/04/20 11:35:57;;;;;;;;;;;;;;;26.37;24.46;100528.09;5088386;28;840;-43
2022/04/20 11:38:43;;;;;;;;;;;;;;;26.36;24.62;100521.00;5097386;28;762;-42
2022/04/20 11:41:09;;;;;;;;;;;;;;;26.33;24.80;100524.09;5096282;28;1306;-42
2022/04/20 11:43:36;;;;;;;;;;;;;;;26.25;25.03;100524.13;5097170;28;793;-43
2022/04/20 11:46:02;;;;;;;;;;;;;;;26.29;24.94;100525.44;5095562;28;887;-43
2022/04/20 11:48:27;;;;;;;;;;;;;;;26.32;24.97;100516.16;5077700;28;897;-43
2022/04/20 11:50:56;;;;;;;;;;;;;;;26.23;25.23;100524.31;5077781;28;1905;-43
2022/04/20 11:53:22;;;;;;;;;;;;;;;26.30;24.99;100513.63;5077313;28;1004;-42
2022/04/20 11:55:47;;;;;;;;;;;;;;;26.43;25.12;100513.03;5076912;28;770;-43
2022/04/20 11:58:13;;;;;;;;;;;;;;;26.48;24.73;100512.47;5086985;28;1144;-42
2022/04/20 12:00:38;;;;;;;;;;;;;;;26.31;25.24;100504.50;5094440;28;1331;-43
2022/04/20 12:03:04;;;;;;;;;;;;;;;26.25;25.35;100500.72;5083629;28;805;-43
2022/04/20 12:05:29;;;;;;;;;;;;;;;26.33;24.91;100505.22;5078628;28;1132;-43
2022/04/20 12:07:54;;;;;;;;;;;;;;;26.46;25.09;100506.44;5096083;28;911;-43
2022/04/20 12:10:20;;;;;;;;;;;;;;;26.50;24.71;100503.19;5077157;28;1909;-42
2022/04/20 12:12:45;;;;;;;;;;;;;;;26.40;24.30;100500.75;5076426;28;1444;-43
2022/04/20 12:15:11;;;;;;;;;;;;;;;26.16;24.48;100497.25;5092467;28;795;-41
2022/04/20 12:17:37;;;;;;;;;;;;;;;26.18;24.57;100497.06;5078153;28;703;-43
2022/04/20 12:20:03;;;;;;;;;;;;;;;26.15;25.22;100495.59;5065900;28;1188;-43
2022/04/20 12:22:28;;;;;;;;;;;;;;;26.33;24.82;100491.72;5090947;28;1059;-43
2022/04/20 12:25:06;;;;;;;;;;;;;;;26.17;25.22;100490.81;5085026;28;1132;-43
2022/04/20 12:27:32;;;;;;;;;;;;;;;26.15;25.26;100494.72;5081046;28;1012;-42
2022/04/20 12:29:58;;;;;;;;;;;;;;;26.11;25.32;100496.94;5058631;28;1957;-42
2022/04/20 12:32:24;;;;;;;;;;;;;;;26.09;25.55;100492.78;5084486;28;797;-43
2022/04/20 12:34:54;;;;;;;;;;;;;;;26.17;25.32;100495.41;5077085;28;952;-43
2022/04/20 12:37:20;;;;;;;;;;;;;;;26.15;25.09;100492.03;5076574;28;846;-42
2022/04/20 12:39:45;;;;;;;;;;;;;;;26.23;25.19;100480.31;5069164;28;1117;-42
2022/04/20 12:42:17;;;;;;;;;;;;;;;26.26;25.00;100469.16;5078249;28;899;-42
2022/04/20 12:44:51;;;;;;;;;;;;;;;26.00;25.67;100471.28;5076637;28;885;-43
2022/04/20 12:47:17;;;;;;;;;;;;;;;26.14;25.38;100466.94;5095513;28;905;-42
2022/04/20 12:49:51;;;;;;;;;;;;;;;26.14;25.54;100466.09;5095568;28;1902;-43
2022/04/20 12:52:17;;;;;;;;;;;;;;;26.14;25.40;100463.41;5093448;28;1210;-43
2022/04/20 12:54:55;;;;;;;;;;;;;;;25.94;25.55;100465.78;5094419;28;1435;-43
2022/04/20 13:02:58;;;;;;;;;;;;;;;26.24;25.21;100463.16;5074124;28;1127;-41
2022/04/20 13:05:24;;;;;;;;;;;;;;;26.27;25.30;100457.38;5067542;28;1070;-43
2022/04/20 13:07:49;;;;;;;;;;;;;;;26.05;25.42;100454.56;5076210;28;731;-43
2022/04/20 13:10:14;;;;;;;;;;;;;;;26.01;25.51;100447.84;5075723;28;1910;-41
2022/04/20 13:12:49;;;;;;;;;;;;;;;25.92;25.39;100453.31;5075647;28;833;-42
2022/04/20 13:15:14;;;;;;;;;;;;;;;25.97;25.67;100447.41;5074818;28;1096;-42
2022/04/20 13:17:40;;;;;;;;;;;;;;;25.91;25.75;100442.72;5071147;28;1135;-43
2022/04/20 13:20:05;;;;;;;;;;;;;;;25.83;25.89;100435.56;5075879;28;754;-41
2022/04/20 13:22:30;;;;;;;;;;;;;;;25.76;26.16;100432.75;5075976;28;868;-42
2022/04/20 13:27:55;;;;;;;;;;;;;;;25.97;25.82;100433.91;5072987;28;1036;-43
2022/04/20 13:30:21;;;;;;;;;;;;;;;25.92;25.69;100425.53;5074263;28;1906;-41